MacDoel, California
Current Conditions -  °F | °C
As of 7:53 PM on Wednesday 22 Oct 2014 (Local Time) from KSIY Reporting Station
Overcast Overcast  
Wind Chill: 60°   Ceiling: 6000
Heat Index: 60°   Visibility: 10mi
Dew Point: 43°   Wind: 14mph
Humidity: 53%   Direction: 180°S
Pressure: 29.93"   Gusts: NA
Location:  41.83°N, 122.01°W
Report Text: KSIY 230253Z AUTO 18012KT 10SM BKN060 OVC075 16/06 A2993 RMK AO2 SLP140 T01560061 58003
Loading
Personal Weather Stations






























Interactive Weather Map
Tropical Storm Tracking
New forecast layout! Learn more

10-Day Weather Forecast

Advertisements
Track Severe Weather on mobile